Time;durP1;ratioP1;P1;durP2;ratioP2;P2;SDS_P1;SDS_P2;PMS_P1;PMS_P2;Temp;Humidity;BMP_temperature;BMP_pressure;BME280_temperature;BME280_humidity;BME280_pressure;Samples;Min_cycle;Max_cycle;Signal;HPM_P1;HPM_P2
2022/10/14 00:01:17;;;;;;;9.18;4.03;;;;;;;13.36;100.00;96470.47;5042767;28;20233;-70
2022/10/14 00:03:44;;;;;;;10.75;4.72;;;;;;;13.27;100.00;96458.34;5041999;28;20201;-69
2022/10/14 00:06:13;;;;;;;14.02;4.35;;;;;;;13.31;100.00;96463.06;5042479;28;20720;-70
2022/10/14 00:08:42;;;;;;;9.88;4.10;;;;;;;13.32;100.00;96461.25;5042599;28;20209;-70
2022/10/14 00:11:10;;;;;;;10.70;4.32;;;;;;;13.27;100.00;96471.59;5042484;28;20229;-67
2022/10/14 00:13:37;;;;;;;8.70;4.00;;;;;;;13.25;100.00;96473.59;5042065;28;20208;-71
2022/10/14 00:16:04;;;;;;;8.50;4.40;;;;;;;13.18;100.00;96467.44;5043038;28;20204;-70
2022/10/14 00:18:31;;;;;;;9.57;3.70;;;;;;;13.16;100.00;96464.97;5042159;28;20208;-72
2022/10/14 00:20:58;;;;;;;9.45;4.10;;;;;;;13.17;100.00;96473.72;5042407;28;20231;-71
2022/10/14 00:23:25;;;;;;;13.20;4.53;;;;;;;13.18;100.00;96470.88;5041965;28;20209;-70
2022/10/14 00:25:54;;;;;;;8.98;4.13;;;;;;;13.15;100.00;96473.91;5042126;28;20225;-69
2022/10/14 00:28:20;;;;;;;8.65;3.88;;;;;;;13.09;100.00;96469.34;5042250;28;20501;-70
2022/10/14 00:30:54;;;;;;;8.65;4.18;;;;;;;13.18;100.00;96476.16;5042351;28;20283;-69
2022/10/14 00:33:20;;;;;;;8.17;4.50;;;;;;;13.07;100.00;96475.84;5041553;28;20216;-71
2022/10/14 00:35:53;;;;;;;8.82;4.30;;;;;;;13.18;100.00;96473.53;5042571;28;20205;-70
2022/10/14 00:38:20;;;;;;;9.07;4.50;;;;;;;13.10;100.00;96480.78;5042221;28;20205;-70
2022/10/14 00:40:47;;;;;;;13.45;4.80;;;;;;;13.09;100.00;96474.63;5042477;28;20278;-70
2022/10/14 00:43:15;;;;;;;12.75;5.03;;;;;;;13.15;100.00;96473.91;5041554;28;20212;-70
2022/10/14 00:45:41;;;;;;;9.88;4.50;;;;;;;13.10;100.00;96472.84;5041996;28;20215;-69
2022/10/14 00:48:09;;;;;;;9.95;4.47;;;;;;;13.14;100.00;96479.38;5041999;28;20981;-67
2022/10/14 00:50:36;;;;;;;9.65;5.05;;;;;;;13.15;100.00;96481.00;5042242;28;20287;-71
2022/10/14 00:53:04;;;;;;;12.65;4.95;;;;;;;13.12;100.00;96466.34;5041788;28;20205;-70
2022/10/14 00:55:31;;;;;;;9.70;4.55;;;;;;;13.17;100.00;96468.44;5041863;28;20209;-69
2022/10/14 00:57:57;;;;;;;10.60;4.72;;;;;;;13.12;100.00;96468.16;5042372;28;20201;-69
2022/10/14 01:00:25;;;;;;;10.13;5.50;;;;;;;13.16;100.00;96464.97;5042028;28;20205;-70
2022/10/14 01:02:52;;;;;;;13.75;5.57;;;;;;;13.12;100.00;96478.75;5041412;28;20209;-69
2022/10/14 01:05:20;;;;;;;12.60;5.20;;;;;;;13.07;100.00;96470.53;5042127;28;20578;-71
2022/10/14 01:07:57;;;;;;;16.75;6.25;;;;;;;13.19;100.00;96469.88;5041966;28;20311;-70
2022/10/14 01:10:32;;;;;;;10.95;5.68;;;;;;;13.24;100.00;96471.94;5041724;28;20301;-70
2022/10/14 01:13:13;;;;;;;15.40;6.55;;;;;;;13.28;100.00;96473.25;5041431;28;20658;-68
2022/10/14 01:15:50;;;;;;;10.95;6.15;;;;;;;13.26;100.00;96473.41;5041798;28;20572;-71
2022/10/14 01:18:37;;;;;;;14.07;6.82;;;;;;;13.27;100.00;96471.59;5041862;28;20208;-67
2022/10/14 01:21:11;;;;;;;14.27;6.63;;;;;;;13.26;100.00;96469.94;5041784;28;20225;-71
2022/10/14 01:24:06;;;;;;;15.25;6.97;;;;;;;13.29;100.00;96477.50;5041129;28;20580;-69
2022/10/14 01:26:56;;;;;;;20.02;8.18;;;;;;;13.28;100.00;96478.53;5041502;28;20229;-71
2022/10/14 01:29:57;;;;;;;16.35;7.45;;;;;;;13.31;100.00;96467.56;5042115;28;20576;-70
2022/10/14 01:32:27;;;;;;;19.35;9.07;;;;;;;13.28;100.00;96467.94;5040856;28;20219;-70
2022/10/14 01:35:00;;;;;;;19.58;8.75;;;;;;;13.23;100.00;96465.84;5041602;28;20208;-70
2022/10/14 01:37:29;;;;;;;21.33;9.38;;;;;;;13.24;100.00;96467.50;5043326;28;20201;-70
2022/10/14 01:39:58;;;;;;;19.98;9.10;;;;;;;13.29;100.00;96472.22;5045686;28;20202;-70
2022/10/14 01:42:29;;;;;;;18.58;8.27;;;;;;;13.30;100.00;96468.56;5044849;28;20225;-71
2022/10/14 01:45:02;;;;;;;23.65;9.13;;;;;;;13.33;100.00;96465.53;5045790;28;20208;-71
2022/10/14 01:47:32;;;;;;;19.63;8.80;;;;;;;13.31;100.00;96467.56;5045093;28;20224;-69
2022/10/14 01:50:03;;;;;;;26.52;10.25;;;;;;;13.30;100.00;96464.09;5045087;28;20211;-70
2022/10/14 01:52:35;;;;;;;22.30;9.75;;;;;;;13.30;100.00;96465.91;5044350;28;20394;-70
2022/10/14 01:55:09;;;;;;;22.10;9.35;;;;;;;13.30;100.00;96465.91;5045279;28;20229;-69
2022/10/14 01:57:39;;;;;;;26.65;9.95;;;;;;;13.33;100.00;96460.22;5045231;28;20572;-70
2022/10/14 02:00:10;;;;;;;22.20;10.57;;;;;;;13.37;100.00;96454.38;5045324;28;20201;-68
2022/10/14 02:02:37;;;;;;;22.17;9.88;;;;;;;13.34;100.00;96457.41;5044247;28;20705;-70
2022/10/14 02:05:08;;;;;;;26.52;10.63;;;;;;;13.37;100.00;96459.69;5045058;28;20205;-70
2022/10/14 02:07:38;;;;;;;22.02;9.90;;;;;;;13.31;100.00;96451.69;5044965;28;20221;-71
2022/10/14 02:10:15;;;;;;;26.05;10.57;;;;;;;13.36;100.00;96451.94;5044919;28;20212;-70
2022/10/14 02:12:53;;;;;;;24.17;10.63;;;;;;;13.33;100.00;96449.66;5043965;28;20224;-71
2022/10/14 02:15:31;;;;;;;26.98;10.27;;;;;;;13.33;100.00;96449.66;5044870;28;20208;-68
2022/10/14 02:18:05;;;;;;;27.30;11.40;;;;;;;13.32;100.00;96446.19;5044616;28;20201;-71
2022/10/14 02:20:36;;;;;;;28.05;10.63;;;;;;;13.32;100.00;96440.91;5044735;28;20205;-70
2022/10/14 02:23:08;;;;;;;25.75;11.10;;;;;;;13.30;100.00;96440.28;5044041;28;20665;-71
2022/10/14 02:25:39;;;;;;;32.58;12.00;;;;;;;13.33;100.00;96441.69;5044640;28;20205;-71
2022/10/14 02:28:08;;;;;;;28.10;11.98;;;;;;;13.32;100.00;96445.38;5044060;28;20228;-69
2022/10/14 02:30:41;;;;;;;29.65;12.05;;;;;;;13.33;100.00;96437.25;5044478;28;20201;-67
2022/10/14 02:33:08;;;;;;;35.70;11.80;;;;;;;13.31;100.00;96436.59;5043943;28;20236;-69
2022/10/14 02:35:38;;;;;;;22.98;10.95;;;;;;;13.29;100.00;96437.81;5044303;28;20201;-71
2022/10/14 02:38:06;;;;;;;26.17;11.23;;;;;;;13.26;100.00;96435.53;5044248;28;20207;-68
2022/10/14 02:40:37;;;;;;;26.15;10.77;;;;;;;13.33;100.00;96431.13;5044296;28;20299;-71
2022/10/14 02:43:06;;;;;;;29.02;11.40;;;;;;;13.27;100.00;96426.59;5043620;28;20209;-68
2022/10/14 02:45:33;;;;;;;27.38;11.23;;;;;;;13.26;100.00;96427.59;5044202;28;20584;-71
2022/10/14 02:48:01;;;;;;;23.15;10.15;;;;;;;13.29;100.00;96428.06;5042844;28;20221;-71
2022/10/14 02:50:28;;;;;;;26.80;10.95;;;;;;;13.26;100.00;96427.59;5041433;28;20201;-71
2022/10/14 02:52:54;;;;;;;22.90;9.75;;;;;;;13.19;100.00;96432.03;5043608;28;20212;-70
2022/10/14 02:55:21;;;;;;;22.48;10.30;;;;;;;13.24;100.00;96434.91;5043814;28;20670;-70
2022/10/14 02:57:48;;;;;;;23.65;9.90;;;;;;;13.20;100.00;96428.34;5043666;28;20205;-70
2022/10/14 03:00:15;;;;;;;24.42;9.88;;;;;;;13.07;100.00;96430.84;5043726;28;20992;-68
2022/10/14 03:02:41;;;;;;;29.17;10.30;;;;;;;13.08;100.00;96424.56;5042977;28;20803;-71
2022/10/14 03:05:10;;;;;;;23.90;9.05;;;;;;;13.16;100.00;96419.16;5044003;28;20585;-70
2022/10/14 03:07:36;;;;;;;20.42;9.60;;;;;;;13.08;100.00;96419.28;5043418;28;20225;-69
2022/10/14 03:10:03;;;;;;;18.83;8.45;;;;;;;13.08;100.00;96419.28;5043945;28;20666;-70
2022/10/14 03:12:30;;;;;;;22.27;8.55;;;;;;;13.03;100.00;96408.44;5043475;28;20221;-69
2022/10/14 03:14:56;;;;;;;25.85;9.18;;;;;;;13.04;100.00;96412.72;5043913;28;20205;-70
2022/10/14 03:17:23;;;;;;;18.75;8.52;;;;;;;13.03;100.00;96413.72;5044658;28;20207;-70
2022/10/14 03:19:50;;;;;;;19.40;9.25;;;;;;;12.99;100.00;96415.91;5044306;28;20237;-69
2022/10/14 03:22:17;;;;;;;22.33;9.57;;;;;;;13.04;100.00;96416.19;5043737;28;20225;-69
2022/10/14 03:24:44;;;;;;;22.52;8.48;;;;;;;13.01;100.00;96403.34;5044114;28;20208;-69
2022/10/14 03:27:10;;;;;;;22.83;8.13;;;;;;;13.00;100.00;96406.97;5044185;28;20232;-69
2022/10/14 03:29:37;;;;;;;19.55;8.43;;;;;;;13.05;100.00;96407.25;5043974;28;20446;-70
2022/10/14 03:32:04;;;;;;;23.90;8.73;;;;;;;13.08;100.00;96406.03;5044252;28;20236;-70
2022/10/14 03:34:30;;;;;;;17.77;8.57;;;;;;;13.07;100.00;96405.25;5043184;28;20201;-70
2022/10/14 03:36:57;;;;;;;23.05;8.38;;;;;;;13.07;100.00;96407.88;5043972;28;20583;-70
2022/10/14 03:39:25;;;;;;;22.70;8.77;;;;;;;13.14;100.00;96405.31;5043814;28;20258;-70
2022/10/14 03:41:51;;;;;;;16.77;8.23;;;;;;;13.11;100.00;96403.84;5043383;28;20225;-69
2022/10/14 03:44:18;;;;;;;20.00;8.10;;;;;;;13.10;100.00;96401.41;5043080;28;20291;-70
2022/10/14 03:46:44;;;;;;;23.00;9.02;;;;;;;13.10;100.00;96393.47;5043995;28;20205;-69
2022/10/14 03:49:12;;;;;;;18.98;8.00;;;;;;;13.16;100.00;96398.81;5043426;28;20376;-69
2022/10/14 03:51:39;;;;;;;17.65;8.57;;;;;;;13.13;100.00;96387.78;5043688;28;20225;-69
2022/10/14 03:54:06;;;;;;;17.00;7.85;;;;;;;13.13;100.00;96385.13;5043498;28;20205;-70
2022/10/14 03:56:34;;;;;;;17.52;8.25;;;;;;;13.18;100.00;96382.75;5043581;28;20201;-69
2022/10/14 03:59:00;;;;;;;23.70;8.07;;;;;;;13.10;100.00;96378.41;5043270;28;20302;-70
2022/10/14 04:01:27;;;;;;;19.40;8.73;;;;;;;13.16;100.00;96387.41;5043249;28;20731;-69
2022/10/14 04:03:54;;;;;;;18.92;8.00;;;;;;;13.15;100.00;96385.75;5042813;28;20203;-69
2022/10/14 04:06:20;;;;;;;22.63;8.05;;;;;;;13.13;100.00;96379.84;5043124;28;20220;-69
2022/10/14 04:08:47;;;;;;;18.85;7.63;;;;;;;13.16;100.00;96379.47;5043474;28;20232;-70
2022/10/14 04:11:13;;;;;;;17.85;8.13;;;;;;;13.16;100.00;96374.16;5042949;28;20239;-70
2022/10/14 04:13:41;;;;;;;18.85;8.10;;;;;;;13.22;100.00;96368.13;5042735;28;20198;-70
2022/10/14 04:16:09;;;;;;;17.02;7.38;;;;;;;13.19;100.00;96369.31;5043397;28;20201;-69
2022/10/14 04:18:36;;;;;;;21.13;8.20;;;;;;;13.17;100.00;96370.53;5043105;28;20672;-70
2022/10/14 04:21:05;;;;;;;18.80;7.47;;;;;;;13.20;100.00;96362.19;5043635;28;20228;-69
2022/10/14 04:23:32;;;;;;;21.08;8.23;;;;;;;13.15;100.00;96365.41;5042512;28;20212;-69
2022/10/14 04:25:59;;;;;;;19.33;7.47;;;;;;;13.13;100.00;96363.97;5043366;28;20215;-69
2022/10/14 04:28:25;;;;;;;17.73;8.05;;;;;;;13.16;100.00;96364.41;5042631;28;20732;-70
2022/10/14 04:30:53;;;;;;;18.23;7.15;;;;;;;13.20;100.00;96367.47;5042598;28;20760;-69
2022/10/14 04:33:20;;;;;;;17.90;7.70;;;;;;;13.13;100.00;96367.44;5042644;28;20205;-69
2022/10/14 04:35:46;;;;;;;22.55;8.43;;;;;;;13.11;100.00;96360.69;5043147;28;20205;-70
2022/10/14 04:38:13;;;;;;;17.35;7.90;;;;;;;13.14;100.00;96362.97;5042690;28;20212;-69
2022/10/14 04:40:39;;;;;;;24.13;8.23;;;;;;;13.12;100.00;96354.38;5043060;28;20205;-69
2022/10/14 04:43:06;;;;;;;19.95;7.85;;;;;;;13.12;100.00;96352.59;5042710;28;20213;-69
2022/10/14 04:45:32;;;;;;;16.17;7.65;;;;;;;13.13;100.00;96345.44;5042893;28;20366;-70
2022/10/14 04:48:00;;;;;;;18.70;7.38;;;;;;;13.19;100.00;96348.16;5042789;28;20225;-70
2022/10/14 04:50:27;;;;;;;20.15;7.53;;;;;;;13.10;100.00;96345.84;5042650;28;20224;-70
2022/10/14 04:52:54;;;;;;;17.70;8.02;;;;;;;13.09;100.00;96346.84;5041734;28;20212;-70
2022/10/14 04:55:20;;;;;;;23.70;8.35;;;;;;;13.13;100.00;96340.16;5043207;28;20208;-69
2022/10/14 04:57:47;;;;;;;19.25;7.70;;;;;;;13.11;100.00;96336.88;5042987;28;20635;-69
2022/10/14 05:00:14;;;;;;;19.77;8.48;;;;;;;13.23;100.00;96336.19;5043125;28;20220;-69
2022/10/14 05:02:41;;;;;;;20.90;8.25;;;;;;;13.14;100.00;96333.88;5042115;28;20745;-72
2022/10/14 05:05:09;;;;;;;17.70;7.57;;;;;;;13.20;100.00;96333.09;5043065;28;20205;-70
2022/10/14 05:07:36;;;;;;;15.48;7.22;;;;;;;13.09;100.00;96326.47;5042502;28;20221;-70
2022/10/14 05:10:04;;;;;;;16.63;7.22;;;;;;;13.11;100.00;96329.78;5043087;28;20216;-70
2022/10/14 05:12:31;;;;;;;13.80;7.07;;;;;;;13.16;100.00;96330.03;5044212;28;20232;-69
2022/10/14 05:14:58;;;;;;;19.23;7.65;;;;;;;13.07;100.00;96322.38;5046679;28;20208;-70
2022/10/14 05:17:25;;;;;;;18.10;7.68;;;;;;;13.03;100.00;96321.94;5046381;28;20209;-70
2022/10/14 05:19:51;;;;;;;19.92;7.47;;;;;;;13.06;100.00;96323.38;5046521;28;20696;-70
2022/10/14 05:22:19;;;;;;;15.60;7.20;;;;;;;13.13;100.00;96321.63;5046203;28;20232;-69
2022/10/14 05:24:46;;;;;;;24.42;10.00;;;;;;;13.02;100.00;96332.72;5046851;28;20205;-70
2022/10/14 05:27:12;;;;;;;23.20;9.32;;;;;;;13.08;100.00;96329.31;5046683;28;20205;-70
2022/10/14 05:29:39;;;;;;;23.15;9.82;;;;;;;13.11;100.00;96331.56;5045982;28;20201;-70
2022/10/14 05:32:05;;;;;;;20.13;8.98;;;;;;;13.05;100.00;96332.34;5046302;28;20225;-70
2022/10/14 05:34:32;;;;;;;20.83;8.90;;;;;;;13.04;100.00;96328.88;5045640;28;20295;-70
2022/10/14 05:36:58;;;;;;;26.08;10.32;;;;;;;13.09;100.00;96325.69;5046274;28;20201;-70
2022/10/14 05:39:26;;;;;;;18.88;8.77;;;;;;;13.15;100.00;96322.25;5046544;28;20677;-70
2022/10/14 05:41:53;;;;;;;18.70;7.38;;;;;;;13.08;100.00;96324.84;5045896;28;20225;-70
2022/10/14 05:44:19;;;;;;;19.58;8.25;;;;;;;13.07;100.00;96325.03;5044555;28;20694;-70
2022/10/14 05:46:46;;;;;;;20.05;7.20;;;;;;;13.08;100.00;96321.38;5045085;28;20677;-72
2022/10/14 05:49:13;;;;;;;26.42;6.85;;;;;;;13.08;100.00;96318.75;5045030;28;20571;-71
2022/10/14 05:51:39;;;;;;;15.57;7.03;;;;;;;13.11;100.00;96318.34;5045309;28;20587;-69
2022/10/14 05:54:06;;;;;;;16.80;6.90;;;;;;;13.10;100.00;96316.75;5044575;28;20669;-70
2022/10/14 05:56:34;;;;;;;15.00;7.15;;;;;;;13.17;100.00;96309.66;5045360;28;20201;-70
2022/10/14 05:59:00;;;;;;;18.80;7.75;;;;;;;13.10;100.00;96316.75;5045319;28;20201;-70
2022/10/14 06:01:27;;;;;;;18.13;7.40;;;;;;;13.14;100.00;96315.34;5044637;28;20222;-72
2022/10/14 06:03:53;;;;;;;16.77;7.70;;;;;;;13.12;100.00;96304.13;5044280;28;20209;-72
2022/10/14 06:06:20;;;;;;;19.08;6.80;;;;;;;13.14;100.00;96304.75;5044875;28;20220;-70
2022/10/14 06:08:46;;;;;;;17.90;7.50;;;;;;;13.09;100.00;96309.81;5044512;28;20724;-70
2022/10/14 06:11:13;;;;;;;17.77;7.82;;;;;;;13.15;100.00;96303.72;5045069;28;20259;-70
2022/10/14 06:13:41;;;;;;;16.17;7.30;;;;;;;13.19;100.00;96303.16;5043881;28;20201;-72
2022/10/14 06:16:10;;;;;;;19.95;8.10;;;;;;;13.19;100.00;96297.06;5044414;28;20677;-71
2022/10/14 06:18:37;;;;;;;20.20;7.68;;;;;;;13.23;100.00;96295.69;5044649;28;20204;-70
2022/10/14 06:21:04;;;;;;;18.83;7.35;;;;;;;13.29;100.00;96301.03;5044803;28;20232;-69
2022/10/14 06:23:31;;;;;;;17.80;8.02;;;;;;;13.23;100.00;96298.31;5043841;28;20201;-70
2022/10/14 06:25:58;;;;;;;17.65;7.97;;;;;;;13.29;100.00;96300.19;5044610;28;20311;-70
2022/10/14 06:28:25;;;;;;;22.02;7.72;;;;;;;13.21;100.00;96289.75;5044484;28;20601;-71
2022/10/14 06:30:54;;;;;;;17.40;7.88;;;;;;;13.35;100.00;96294.13;5044190;28;20597;-72
2022/10/14 06:33:21;;;;;;;19.70;8.00;;;;;;;13.37;100.00;96302.72;5043709;28;20581;-71
2022/10/14 06:35:48;;;;;;;22.10;8.82;;;;;;;13.47;100.00;96304.00;5044423;28;20212;-70
2022/10/14 06:38:15;;;;;;;18.15;8.70;;;;;;;13.53;100.00;96293.47;5044156;28;20205;-70
2022/10/14 06:40:42;;;;;;;20.65;8.45;;;;;;;13.47;100.00;96296.88;5044170;28;20225;-71
2022/10/14 06:43:08;;;;;;;20.27;8.10;;;;;;;13.47;100.00;96282.81;5043948;28;20383;-70
2022/10/14 06:45:35;;;;;;;17.25;7.68;;;;;;;13.53;100.00;96287.31;5044449;28;20211;-70
2022/10/14 06:48:03;;;;;;;17.58;7.57;;;;;;;13.38;100.00;96287.44;5043962;28;20221;-70
2022/10/14 06:50:30;;;;;;;16.25;6.88;;;;;;;13.43;100.00;96286.88;5043812;28;20296;-71
2022/10/14 06:52:56;;;;;;;15.20;6.82;;;;;;;13.42;100.00;96279.94;5043588;28;20209;-70
2022/10/14 06:55:23;;;;;;;19.90;6.75;;;;;;;13.51;100.00;96284.88;5043898;28;20205;-72
2022/10/14 06:57:49;;;;;;;19.38;7.57;;;;;;;13.42;100.00;96286.03;5043984;28;20580;-70
2022/10/14 07:00:17;;;;;;;17.67;7.22;;;;;;;13.56;100.00;96287.75;5044084;28;20209;-69
2022/10/14 07:02:44;;;;;;;16.13;7.13;;;;;;;13.64;100.00;96294.75;5042975;28;20614;-70
2022/10/14 07:05:11;;;;;;;17.15;7.43;;;;;;;13.81;100.00;96304.84;5043554;28;20205;-73
2022/10/14 07:07:38;;;;;;;12.35;6.15;;;;;;;13.86;100.00;96299.78;5043796;28;20205;-70
2022/10/14 07:10:05;;;;;;;15.40;6.35;;;;;;;13.87;100.00;96304.03;5043743;28;20209;-70
2022/10/14 07:12:32;;;;;;;11.88;5.60;;;;;;;14.04;100.00;96300.09;5042567;28;20995;-70
2022/10/14 07:14:58;;;;;;;14.40;6.15;;;;;;;14.11;100.00;96301.75;5043561;28;20688;-72
2022/10/14 07:17:25;;;;;;;13.48;5.43;;;;;;;14.23;100.00;96307.31;5043578;28;20216;-70
2022/10/14 07:19:51;;;;;;;11.77;5.07;;;;;;;14.25;100.00;96300.00;5043468;28;20205;-71
2022/10/14 07:22:19;;;;;;;11.45;4.65;;;;;;;14.50;100.00;96299.28;5043017;28;20228;-70
2022/10/14 07:24:45;;;;;;;13.52;5.00;;;;;;;14.52;100.00;96296.41;5043712;28;20633;-70
2022/10/14 07:27:14;;;;;;;10.05;5.13;;;;;;;14.56;100.00;96292.34;5043115;28;20209;-70
2022/10/14 07:29:41;;;;;;;10.38;4.60;;;;;;;14.59;100.00;96300.72;5043193;28;20623;-71
2022/10/14 07:32:08;;;;;;;9.10;4.38;;;;;;;14.56;100.00;96303.78;5043348;28;20243;-72
2022/10/14 07:34:34;;;;;;;7.90;3.92;;;;;;;14.52;100.00;96307.03;5041977;28;20205;-70
2022/10/14 07:37:01;;;;;;;9.32;4.13;;;;;;;14.74;100.00;96312.81;5042876;28;20205;-71
2022/10/14 07:39:29;;;;;;;11.07;4.57;;;;;;;14.89;100.00;96315.28;5043669;28;20205;-70
2022/10/14 07:41:55;;;;;;;10.20;5.07;;;;;;;14.87;100.00;96320.78;5042908;28;20232;-70
2022/10/14 07:44:22;;;;;;;13.98;4.40;;;;;;;14.77;100.00;96322.19;5042205;28;20212;-73
2022/10/14 07:46:48;;;;;;;6.93;3.60;;;;;;;14.87;100.00;96323.44;5043394;28;20212;-73
2022/10/14 07:49:17;;;;;;;10.60;4.28;;;;;;;14.89;100.00;96315.28;5042478;28;20712;-70
2022/10/14 07:51:45;;;;;;;7.43;3.78;;;;;;;15.12;100.00;96321.88;5042769;28;20244;-70
2022/10/14 07:54:15;;;;;;;9.70;3.55;;;;;;;15.32;100.00;96323.56;5042168;28;20224;-71
2022/10/14 07:56:44;;;;;;;11.20;3.28;;;;;;;15.38;100.00;96311.28;5042499;28;20220;-72
2022/10/14 07:59:11;;;;;;;7.05;3.67;;;;;;;15.43;100.00;96314.16;5043049;28;20208;-71
2022/10/14 08:01:38;;;;;;;6.40;3.33;;;;;;;15.46;100.00;96319.84;5042767;28;20227;-69
2022/10/14 08:04:04;;;;;;;4.68;3.10;;;;;;;15.34;100.00;96315.38;5041979;28;20205;-70
2022/10/14 08:06:31;;;;;;;5.10;3.00;;;;;;;15.38;100.00;96312.09;5042287;28;20212;-71
2022/10/14 08:08:58;;;;;;;5.32;3.40;;;;;;;15.39;100.00;96315.59;5042718;28;20233;-70
2022/10/14 08:11:26;;;;;;;6.70;3.30;;;;;;;15.58;100.00;96312.06;5042349;28;20244;-70
2022/10/14 08:13:55;;;;;;;7.13;2.90;;;;;;;15.54;100.00;96316.16;5042091;28;20211;-70
2022/10/14 08:16:23;;;;;;;5.82;3.20;;;;;;;15.62;100.00;96313.31;5042653;28;20224;-71
2022/10/14 08:18:50;;;;;;;6.18;3.00;;;;;;;15.64;100.00;96301.44;5042605;28;20205;-72
2022/10/14 08:21:18;;;;;;;10.65;3.33;;;;;;;15.69;100.00;96300.84;5042226;28;20231;-70
2022/10/14 08:23:45;;;;;;;6.03;3.10;;;;;;;15.63;100.00;96301.66;5041780;28;20371;-70
2022/10/14 08:26:19;;;;;;;4.82;3.00;;;;;;;15.67;100.00;96306.38;5042475;28;21100;-71
2022/10/14 08:28:46;;;;;;;4.68;2.35;;;;;;;15.55;100.00;96313.31;5042174;28;20231;-71
2022/10/14 08:31:14;;;;;;;7.15;2.80;;;;;;;15.57;100.00;96316.59;5042296;28;20228;-71
2022/10/14 08:33:41;;;;;;;6.03;3.15;;;;;;;15.55;100.00;96313.31;5041615;28;20201;-70
2022/10/14 08:36:08;;;;;;;5.07;2.75;;;;;;;15.57;100.00;96311.28;5042493;28;20201;-70
2022/10/14 08:38:34;;;;;;;5.35;2.72;;;;;;;15.52;100.00;96308.41;5042026;28;20892;-70
2022/10/14 08:41:14;;;;;;;4.28;2.20;;;;;;;15.69;100.00;96301.66;5042406;28;20217;-70
2022/10/14 08:43:48;;;;;;;5.90;2.85;;;;;;;15.79;100.00;96307.34;5041799;28;20216;-71
2022/10/14 08:46:23;;;;;;;5.00;2.97;;;;;;;15.82;100.00;96304.28;5041872;28;20211;-71
2022/10/14 08:48:53;;;;;;;6.28;2.85;;;;;;;15.76;100.00;96304.28;5046246;28;20889;-72
2022/10/14 08:51:21;;;;;;;5.70;3.08;;;;;;;15.92;100.00;96310.81;5046494;28;20225;-72
2022/10/14 08:53:52;;;;;;;4.55;2.28;;;;;;;15.90;100.00;96296.91;5045595;28;20673;-70
2022/10/14 08:56:20;;;;;;;5.75;2.90;;;;;;;16.04;100.00;96301.19;5046695;28;20197;-70
2022/10/14 08:58:49;;;;;;;7.00;3.08;;;;;;;16.23;100.00;96302.13;5046113;28;20208;-70
2022/10/14 09:01:25;;;;;;;9.20;2.60;;;;;;;16.02;100.00;96300.56;5046124;28;20225;-71
2022/10/14 09:03:55;;;;;;;7.40;2.60;;;;;;;16.27;100.00;96298.88;5045546;28;20212;-70
2022/10/14 09:06:25;;;;;;;10.25;2.55;;;;;;;16.18;100.00;96289.47;5045736;28;20209;-70
2022/10/14 09:08:56;;;;;;;4.43;2.35;;;;;;;16.18;100.00;96299.31;5045685;28;20751;-72
2022/10/14 09:11:24;;;;;;;5.95;2.78;;;;;;;16.34;100.00;96294.34;5045506;28;20229;-71
2022/10/14 09:13:54;;;;;;;3.95;2.17;;;;;;;16.49;100.00;96289.56;5045474;28;20655;-73
2022/10/14 09:16:25;;;;;;;4.15;1.95;;;;;;;16.71;100.00;96296.22;5046247;28;20216;-71
2022/10/14 09:18:55;;;;;;;3.53;1.88;;;;;;;16.75;100.00;96284.13;5045770;28;20208;-73
2022/10/14 09:21:28;;;;;;;7.35;1.90;;;;;;;16.92;100.00;96287.94;5045606;28;20385;-73
2022/10/14 09:24:00;;;;;;;4.63;1.75;;;;;;;16.99;97.60;96278.84;5044771;28;20298;-71
2022/10/14 09:26:38;;;;;;;3.80;1.65;;;;;;;16.92;96.89;96277.28;5045972;28;20205;-70
2022/10/14 09:29:05;;;;;;;6.18;2.10;;;;;;;16.91;99.03;96280.97;5045558;28;20269;-70
2022/10/14 09:31:33;;;;;;;3.88;2.08;;;;;;;16.84;99.41;96277.50;5045513;28;20229;-71
2022/10/14 09:34:00;;;;;;;2.50;1.80;;;;;;;16.82;98.85;96282.25;5044599;28;20205;-71
2022/10/14 09:36:27;;;;;;;4.45;1.73;;;;;;;17.05;99.90;96272.66;5045493;28;20213;-70
2022/10/14 09:38:55;;;;;;;6.30;2.35;;;;;;;17.02;100.00;96280.25;5045491;28;20224;-71
2022/10/14 09:41:26;;;;;;;5.72;1.60;;;;;;;17.13;96.89;96280.38;5045126;28;20225;-71
2022/10/14 09:44:22;;;;;;;6.72;1.98;;;;;;;17.25;98.35;96278.69;5044733;28;20673;-72
2022/10/14 09:46:54;;;;;;;3.03;1.65;;;;;;;17.08;97.52;96273.06;5044974;28;20209;-70
2022/10/14 09:49:32;;;;;;;6.35;2.20;;;;;;;17.08;97.01;96274.88;5045231;28;20232;-71
2022/10/14 09:52:01;;;;;;;5.55;2.05;;;;;;;17.01;99.14;96265.34;5045160;28;20229;-70
2022/10/14 09:54:30;;;;;;;4.68;2.08;;;;;;;17.06;98.29;96276.97;5044468;28;20205;-70
2022/10/14 09:57:04;;;;;;;5.28;2.38;;;;;;;17.14;98.39;96272.19;5045167;28;20209;-72
2022/10/14 09:59:32;;;;;;;3.17;1.88;;;;;;;17.22;98.47;96268.44;5044742;28;20220;-70
2022/10/14 10:02:02;;;;;;;4.28;2.05;;;;;;;17.18;100.00;96268.06;5044861;28;20225;-72
2022/10/14 10:04:40;;;;;;;3.00;1.80;;;;;;;17.15;99.38;96273.81;5044182;28;20237;-70
2022/10/14 10:07:23;;;;;;;3.65;1.92;;;;;;;17.35;100.00;96263.84;5044843;28;20594;-70
2022/10/14 10:09:54;;;;;;;4.90;2.20;;;;;;;17.38;97.18;96270.59;5044496;28;20263;-72
2022/10/14 10:12:25;;;;;;;3.47;1.90;;;;;;;17.50;97.00;96259.03;5044326;28;20887;-72
2022/10/14 10:14:57;;;;;;;5.28;1.92;;;;;;;17.40;98.65;96261.34;5044595;28;20666;-71
2022/10/14 10:17:26;;;;;;;2.70;1.70;;;;;;;17.06;100.00;96268.16;5044885;28;20638;-70
2022/10/14 10:20:07;;;;;;;2.67;1.60;;;;;;;17.15;99.11;96262.34;5044635;28;20205;-72
2022/10/14 10:22:35;;;;;;;4.80;2.13;;;;;;;16.94;99.92;96260.06;5044150;28;20697;-72
2022/10/14 10:25:19;;;;;;;3.85;1.65;;;;;;;16.92;100.00;96261.31;5044724;28;20292;-70
2022/10/14 10:27:48;;;;;;;4.50;1.77;;;;;;;16.81;98.10;96260.13;5044307;28;20209;-71
2022/10/14 10:30:22;;;;;;;2.78;1.70;;;;;;;16.66;100.00;96251.63;5044066;28;20225;-70
2022/10/14 10:33:01;;;;;;;3.60;2.00;;;;;;;16.65;100.00;96246.53;5044184;28;20224;-70
2022/10/14 10:35:32;;;;;;;6.22;2.00;;;;;;;16.91;100.00;96249.81;5044291;28;20747;-70
2022/10/14 10:38:08;;;;;;;5.18;1.90;;;;;;;17.09;100.00;96250.72;5044581;28;20201;-70
2022/10/14 10:40:41;;;;;;;6.00;1.80;;;;;;;17.23;100.00;96251.44;5044570;28;20201;-70
2022/10/14 10:43:40;;;;;;;3.72;2.17;;;;;;;17.36;100.00;96233.53;5043861;28;20501;-69
2022/10/14 10:46:21;;;;;;;4.30;2.35;;;;;;;17.30;100.00;96239.72;5044362;28;20232;-70
2022/10/14 10:48:56;;;;;;;4.50;2.38;;;;;;;17.34;100.00;96230.25;5043778;28;20224;-70
2022/10/14 10:51:31;;;;;;;7.28;2.30;;;;;;;17.15;100.00;96236.53;5043475;28;20229;-70
2022/10/14 10:54:07;;;;;;;3.30;2.15;;;;;;;17.30;99.45;96221.06;5043551;28;20926;-70
2022/10/14 10:56:41;;;;;;;3.50;2.22;;;;;;;17.30;100.00;96222.94;5044055;28;20733;-69
2022/10/14 10:59:34;;;;;;;6.43;3.10;;;;;;;17.28;100.00;96215.13;5044226;28;20456;-70
2022/10/14 11:02:19;;;;;;;5.95;2.53;;;;;;;17.23;100.00;96222.13;5043617;28;20321;-70
2022/10/14 11:04:53;;;;;;;4.45;2.58;;;;;;;17.34;99.43;96213.47;5043691;28;20215;-70
2022/10/14 11:13:11;;;;;;;4.63;2.35;;;;;;;17.29;100.00;96205.31;5042911;28;20211;-73
2022/10/14 11:15:47;;;;;;;4.60;2.13;;;;;;;17.24;99.86;96189.97;5043742;28;20275;-70
2022/10/14 11:18:23;;;;;;;5.88;2.58;;;;;;;17.42;98.62;96194.53;5043461;28;20212;-70
2022/10/14 11:21:04;;;;;;;5.13;2.45;;;;;;;17.43;97.83;96186.31;5043231;28;20704;-70
2022/10/14 11:23:48;;;;;;;6.63;2.40;;;;;;;17.57;98.74;96187.00;5042600;28;20619;-71
2022/10/14 11:26:28;;;;;;;5.65;2.30;;;;;;;17.50;100.00;96180.91;5043447;28;20696;-70
2022/10/14 11:29:06;;;;;;;4.07;1.92;;;;;;;17.57;100.00;96177.16;5043350;28;20209;-73
2022/10/14 11:31:40;;;;;;;4.40;2.20;;;;;;;17.67;99.29;96172.13;5043377;28;20221;-71
2022/10/14 11:34:34;;;;;;;3.40;1.67;;;;;;;17.81;99.89;96173.63;5042557;28;20216;-71
2022/10/14 11:37:09;;;;;;;4.45;2.20;;;;;;;17.69;100.00;96166.56;5043158;28;20201;-72